Madeline — WDF2406 — position and weather

sailwx.info

Track history (hours):
 
Tides and Currents Weather Stations Pressure Air Temp Water Temp Dewpoint Dewpoint Depression Visibility Wind Speed Wind Dir Waves Ship Positions

Madeline

Owner: Enterprise Marine Services, LLC, San Antonio, TX. More information available from US FCC via Universal Licensing System and Coast Guard Vessel Documentation Center.

Last reported at 2016-May-05 08:28 UTC. Time now 2016-May-05 12:24 UTC.
Position N 29°24' W 094°45'.

; draft 3 m.

Type: Tug. MMSI: 367350460.

Date/timePositionNaut miles runAvg speedWind from/ knotsBaromVisibWave heightAir tempDewpointWater temp
2016-May-05 08:28N 29°24' W 094°45'  
2016-Apr-30 00:27N 29°34' W 094°27'58 5.9
2016-Apr-29 14:29N 30°04' W 093°29'15 3.7
2016-Apr-29 10:32N 29°60' W 093°13'11 5.3
2016-Apr-29 08:22N 29°56' W 093°01'5 5.5
2016-Apr-29 07:30N 29°56' W 092°55'110 4.4
2016-Apr-28 06:29N 29°32' W 090°51'5 5.5
2016-Apr-28 05:33N 29°32' W 090°46'3 2.9
2016-Apr-28 04:34N 29°34' W 090°43'0 0.1
2016-Apr-28 03:34N 29°34' W 090°43'0 0.0
2016-Apr-28 02:34N 29°34' W 090°43'1 0.8
2016-Apr-28 01:34N 29°33' W 090°42'3 3.2
2016-Apr-28 00:33N 29°36' W 090°43'4 4.1
2016-Apr-27 23:33N 29°35' W 090°38'6 5.5
2016-Apr-27 22:33N 29°34' W 090°32'9 4.0
2016-Apr-27 20:13N 29°36' W 090°22'19 3.7
2016-Apr-27 15:10N 29°47' W 090°04'3 4.6
2016-Apr-27 14:34N 29°50' W 090°03'4 3.9
2016-Apr-27 13:34N 29°53' W 090°00'0 0.5
2016-Apr-27 12:34N 29°53' W 090°00'2 2.3
2016-Apr-27 11:34N 29°55' W 089°58'0 0.2
2016-Apr-27 10:33N 29°55' W 089°58'2 0.3
2016-Apr-27 05:14N 29°56' W 089°56'0 0.1
2016-Apr-27 04:32N 29°55' W 089°57'0 0.1
2016-Apr-27 03:33N 29°55' W 089°57'0 0.0
2016-Apr-27 01:28N 29°56' W 089°57'0 0.0
2016-Apr-26 22:20N 29°56' W 089°57'0 0.0
2016-Apr-26 21:34N 29°56' W 089°57'0 0.0
2016-Apr-26 20:33N 29°56' W 089°57'0 0.0
2016-Apr-26 19:34N 29°56' W 089°57'0 0.0
2016-Apr-26 18:33N 29°56' W 089°57'0 0.0
2016-Apr-26 17:31N 29°56' W 089°57'0 0.0
2016-Apr-26 16:33N 29°56' W 089°57'0 0.0
2016-Apr-26 15:33N 29°56' W 089°57'0 0.0
2016-Apr-26 14:26N 29°56' W 089°57'0 0.0
2016-Apr-26 13:33N 29°56' W 089°57'0 0.0
2016-Apr-26 12:33N 29°56' W 089°57'0 0.1
2016-Apr-26 11:33N 29°55' W 089°57'9 8.6
2016-Apr-26 10:33N 29°55' W 090°07'1 0.7
2016-Apr-26 09:33N 29°54' W 090°07'0 0.0
2016-Apr-26 08:33N 29°54' W 090°07'0 0.0
2016-Apr-26 07:33N 29°54' W 090°07'0 0.0
2016-Apr-26 06:33N 29°54' W 090°07'0 0.0
2016-Apr-26 05:34N 29°54' W 090°07'0 0.0
2016-Apr-26 04:33N 29°54' W 090°07'0 0.0
2016-Apr-26 03:33N 29°54' W 090°07'0 0.0
2016-Apr-26 02:33N 29°54' W 090°07'0 0.0
2016-Apr-26 01:33N 29°54' W 090°07'0 0.0
2016-Apr-26 00:33N 29°54' W 090°07'0 0.0
2016-Apr-25 23:33N 29°54' W 090°07'0 0.0
2016-Apr-25 22:33N 29°54' W 090°07'0 0.0
2016-Apr-25 21:34N 29°54' W 090°07'0 0.0
2016-Apr-25 20:34N 29°54' W 090°07'0 0.0
2016-Apr-25 19:33N 29°54' W 090°07'0 0.0
2016-Apr-25 18:33N 29°54' W 090°07'0 0.0
2016-Apr-25 17:34N 29°54' W 090°07'0 0.0
2016-Apr-25 16:33N 29°54' W 090°07'0 0.0
2016-Apr-25 15:33N 29°54' W 090°07'0 0.0
2016-Apr-25 14:33N 29°54' W 090°07'0 0.0
2016-Apr-25 13:33N 29°54' W 090°07'0 0.0
2016-Apr-25 12:34N 29°54' W 090°07'0 0.0
2016-Apr-25 11:34N 29°54' W 090°07'0 0.0
2016-Apr-25 10:33N 29°54' W 090°07'0 0.0
2016-Apr-25 09:34N 29°54' W 090°07'0 0.0
2016-Apr-25 08:33N 29°54' W 090°07'  
Track history (hours):
 
Tides and Currents Weather Stations Pressure Air Temp Water Temp Dewpoint Dewpoint Depression Visibility Wind Speed Wind Dir Waves Ship Positions

Madeline

Owner: Enterprise Marine Services, LLC, San Antonio, TX. More information available from US FCC via Universal Licensing System and Coast Guard Vessel Documentation Center.

Last reported at 2016-May-05 08:28 UTC. Time now 2016-May-05 12:24 UTC.
Position N 29°24' W 094°45'.

; draft 3 m.

Type: Tug. MMSI: 367350460.

Date/timePositionNaut miles runAvg speedWind from/ knotsBaromVisibWave heightAir tempDewpointWater temp
2016-May-05 08:28N 29°24' W 094°45'  
2016-Apr-30 00:27N 29°34' W 094°27'58 5.9
2016-Apr-29 14:29N 30°04' W 093°29'15 3.7
2016-Apr-29 10:32N 29°60' W 093°13'11 5.3
2016-Apr-29 08:22N 29°56' W 093°01'5 5.5
2016-Apr-29 07:30N 29°56' W 092°55'110 4.4
2016-Apr-28 06:29N 29°32' W 090°51'5 5.5
2016-Apr-28 05:33N 29°32' W 090°46'3 2.9
2016-Apr-28 04:34N 29°34' W 090°43'0 0.1
2016-Apr-28 03:34N 29°34' W 090°43'0 0.0
2016-Apr-28 02:34N 29°34' W 090°43'1 0.8
2016-Apr-28 01:34N 29°33' W 090°42'3 3.2
2016-Apr-28 00:33N 29°36' W 090°43'4 4.1
2016-Apr-27 23:33N 29°35' W 090°38'6 5.5
2016-Apr-27 22:33N 29°34' W 090°32'9 4.0
2016-Apr-27 20:13N 29°36' W 090°22'19 3.7
2016-Apr-27 15:10N 29°47' W 090°04'3 4.6
2016-Apr-27 14:34N 29°50' W 090°03'4 3.9
2016-Apr-27 13:34N 29°53' W 090°00'0 0.5
2016-Apr-27 12:34N 29°53' W 090°00'2 2.3
2016-Apr-27 11:34N 29°55' W 089°58'0 0.2
2016-Apr-27 10:33N 29°55' W 089°58'2 0.3
2016-Apr-27 05:14N 29°56' W 089°56'0 0.1
2016-Apr-27 04:32N 29°55' W 089°57'0 0.1
2016-Apr-27 03:33N 29°55' W 089°57'0 0.0
2016-Apr-27 01:28N 29°56' W 089°57'0 0.0
2016-Apr-26 22:20N 29°56' W 089°57'0 0.0
2016-Apr-26 21:34N 29°56' W 089°57'0 0.0
2016-Apr-26 20:33N 29°56' W 089°57'0 0.0
2016-Apr-26 19:34N 29°56' W 089°57'0 0.0
2016-Apr-26 18:33N 29°56' W 089°57'0 0.0
2016-Apr-26 17:31N 29°56' W 089°57'0 0.0
2016-Apr-26 16:33N 29°56' W 089°57'0 0.0
2016-Apr-26 15:33N 29°56' W 089°57'0 0.0
2016-Apr-26 14:26N 29°56' W 089°57'0 0.0
2016-Apr-26 13:33N 29°56' W 089°57'0 0.0
2016-Apr-26 12:33N 29°56' W 089°57'0 0.1
2016-Apr-26 11:33N 29°55' W 089°57'9 8.6
2016-Apr-26 10:33N 29°55' W 090°07'1 0.7
2016-Apr-26 09:33N 29°54' W 090°07'0 0.0
2016-Apr-26 08:33N 29°54' W 090°07'0 0.0
2016-Apr-26 07:33N 29°54' W 090°07'0 0.0
2016-Apr-26 06:33N 29°54' W 090°07'0 0.0
2016-Apr-26 05:34N 29°54' W 090°07'0 0.0
2016-Apr-26 04:33N 29°54' W 090°07'0 0.0
2016-Apr-26 03:33N 29°54' W 090°07'0 0.0
2016-Apr-26 02:33N 29°54' W 090°07'0 0.0
2016-Apr-26 01:33N 29°54' W 090°07'0 0.0
2016-Apr-26 00:33N 29°54' W 090°07'0 0.0
2016-Apr-25 23:33N 29°54' W 090°07'0 0.0
2016-Apr-25 22:33N 29°54' W 090°07'0 0.0
2016-Apr-25 21:34N 29°54' W 090°07'0 0.0
2016-Apr-25 20:34N 29°54' W 090°07'0 0.0
2016-Apr-25 19:33N 29°54' W 090°07'0 0.0
2016-Apr-25 18:33N 29°54' W 090°07'0 0.0
2016-Apr-25 17:34N 29°54' W 090°07'0 0.0
2016-Apr-25 16:33N 29°54' W 090°07'0 0.0
2016-Apr-25 15:33N 29°54' W 090°07'0 0.0
2016-Apr-25 14:33N 29°54' W 090°07'0 0.0
2016-Apr-25 13:33N 29°54' W 090°07'0 0.0
2016-Apr-25 12:34N 29°54' W 090°07'0 0.0
2016-Apr-25 11:34N 29°54' W 090°07'0 0.0
2016-Apr-25 10:33N 29°54' W 090°07'0 0.0
2016-Apr-25 09:34N 29°54' W 090°07'0 0.0
2016-Apr-25 08:33N 29°54' W 090°07'  

Dump ship's entire track history